Time;durP1;ratioP1;P1;durP2;ratioP2;P2;SDS_P1;SDS_P2;PMS_P1;PMS_P2;Temp;Humidity;BMP_temperature;BMP_pressure;BME280_temperature;BME280_humidity;BME280_pressure;Samples;Min_cycle;Max_cycle;Signal;HPM_P1;HPM_P2
2021/06/02 00:01:58;;;;;;;13.00;8.28;;;;;;;13.36;64.32;100424.22;2163258;81;21076;-72
2021/06/02 00:05:03;;;;;;;16.20;8.45;;;;;;;13.32;64.36;100425.59;2163322;81;21083;-71
2021/06/02 00:08:08;;;;;;;11.88;8.50;;;;;;;13.28;64.47;100424.27;2168075;80;21518;-72
2021/06/02 00:11:10;;;;;;;14.15;8.58;;;;;;;13.26;64.63;100430.27;2162595;81;21060;-72
2021/06/02 00:14:11;;;;;;;13.40;7.53;;;;;;;13.24;64.70;100426.94;2171370;80;21064;-72
2021/06/02 00:17:14;;;;;;;16.40;8.35;;;;;;;13.22;64.84;100422.28;2166969;80;21104;-72
2021/06/02 00:20:15;;;;;;;11.50;8.25;;;;;;;13.20;64.77;100425.11;2170350;80;21084;-72
2021/06/02 00:23:17;;;;;;;14.58;8.45;;;;;;;13.18;65.44;100421.81;2165838;80;21108;-73
2021/06/02 00:26:20;;;;;;;10.98;7.40;;;;;;;13.17;64.93;100417.98;2171276;81;21543;-72
2021/06/02 00:29:27;;;;;;;14.35;8.15;;;;;;;13.15;65.09;100415.98;2171133;80;21017;-71
2021/06/02 00:32:29;;;;;;;11.33;7.72;;;;;;;13.10;65.12;100410.38;2155928;80;21049;-73
2021/06/02 00:35:31;;;;;;;11.43;7.65;;;;;;;13.10;65.26;100406.38;2173747;81;21102;-72
2021/06/02 00:38:34;;;;;;;8.93;7.37;;;;;;;13.13;65.26;100410.03;2164597;80;21690;-72
2021/06/02 00:41:38;;;;;;;12.15;7.62;;;;;;;13.14;65.13;100411.67;2170649;81;21080;-71
2021/06/02 00:44:40;;;;;;;10.93;7.83;;;;;;;13.19;65.06;100412.80;2156080;79;21017;-72
2021/06/02 00:47:43;;;;;;;11.20;7.17;;;;;;;13.25;65.05;100409.94;2172492;80;21591;-72
2021/06/02 00:50:50;;;;;;;12.88;7.67;;;;;;;13.23;64.93;100416.79;2174881;80;21118;-72
2021/06/02 00:53:54;;;;;;;14.63;7.50;;;;;;;13.22;64.93;100411.62;2165687;79;21342;-72
2021/06/02 00:57:12;;;;;;;11.78;7.87;;;;;;;13.24;64.76;100420.28;2171475;80;21069;-72
2021/06/02 01:00:15;;;;;;;13.30;7.60;;;;;;;13.27;64.71;100425.79;2162952;80;21076;-71
2021/06/02 01:03:21;;;;;;;11.95;7.90;;;;;;;13.28;64.66;100427.44;2165193;80;21076;-75
2021/06/02 01:06:46;;;;;;;10.82;7.20;;;;;;;13.29;64.67;100419.76;2115301;82;21039;-72
2021/06/02 01:09:51;;;;;;;14.20;8.03;;;;;;;13.30;64.57;100430.26;2151606;81;21538;-73
2021/06/02 01:12:53;;;;;;;12.50;7.87;;;;;;;13.32;64.52;100433.58;2150889;81;21120;-72
2021/06/02 01:15:54;;;;;;;10.72;7.67;;;;;;;13.33;64.54;100424.57;2112754;82;21142;-76
2021/06/02 01:18:56;;;;;;;11.90;7.95;;;;;;;13.28;64.63;100432.27;2115289;82;21039;-72
2021/06/02 01:22:02;;;;;;;13.95;7.58;;;;;;;13.24;64.67;100429.61;2150236;81;21050;-73
2021/06/02 01:25:10;;;;;;;11.85;8.13;;;;;;;13.20;64.73;100429.11;2152438;81;21034;-72
2021/06/02 01:28:12;;;;;;;14.43;8.88;;;;;;;13.19;64.89;100437.30;2151231;81;21050;-72
2021/06/02 01:31:18;;;;;;;12.33;8.30;;;;;;;13.14;64.91;100438.31;2149745;81;21588;-72
2021/06/02 01:35:11;;;;;;;11.20;7.90;;;;;;;13.13;65.00;100439.33;2135670;81;21063;-72
2021/06/02 01:38:32;;;;;;;13.13;7.80;;;;;;;13.13;65.08;100441.48;2152915;81;21040;-71
2021/06/02 01:42:01;;;;;;;11.75;8.10;;;;;;;13.09;65.11;100439.34;2123545;81;21122;-72
2021/06/02 01:45:45;;;;;;;10.45;8.08;;;;;;;13.06;65.07;100447.69;2187352;80;21051;-73
2021/06/02 01:49:30;;;;;;;13.18;8.40;;;;;;;13.07;65.11;100450.19;2186941;80;21022;-76
2021/06/02 01:53:03;;;;;;;12.00;8.45;;;;;;;13.08;65.09;100454.50;2187373;80;21094;-75
2021/06/02 01:56:39;;;;;;;15.03;8.48;;;;;;;13.08;65.14;100450.50;2155110;81;21031;-72
2021/06/02 02:00:25;;;;;;;17.90;8.83;;;;;;;13.08;65.01;100450.50;2154010;81;21574;-71
2021/06/02 02:03:59;;;;;;;10.98;7.65;;;;;;;13.14;64.96;100460.96;2154169;81;21578;-73
2021/06/02 02:07:15;;;;;;;13.70;8.30;;;;;;;13.18;64.85;100466.28;2188549;79;21153;-71
2021/06/02 02:10:50;;;;;;;13.00;8.80;;;;;;;13.20;64.78;100468.25;2192168;80;21038;-73
2021/06/02 02:14:16;;;;;;;17.50;8.75;;;;;;;13.23;64.63;100470.56;2193518;80;21054;-75
2021/06/02 02:18:13;;;;;;;14.87;9.10;;;;;;;13.24;64.64;100475.73;2190588;80;21085;-72
2021/06/02 02:21:53;;;;;;;12.43;7.47;;;;;;;13.25;64.77;100472.56;2192995;80;21075;-72
2021/06/02 02:25:23;;;;;;;13.72;8.33;;;;;;;13.26;64.96;100477.41;2192999;80;21027;-73
2021/06/02 02:28:46;;;;;;;21.80;10.43;;;;;;;13.27;65.01;100475.09;2189774;80;21545;-72
2021/06/02 02:31:59;;;;;;;12.35;8.10;;;;;;;13.24;64.99;100481.06;2116811;82;21280;-72
2021/06/02 02:35:38;;;;;;;11.03;7.58;;;;;;;13.17;65.08;100481.41;2118031;82;21078;-74
2021/06/02 02:38:51;;;;;;;12.35;7.92;;;;;;;13.06;65.29;100471.66;2153422;81;21027;-72
2021/06/02 02:42:31;;;;;;;13.45;8.20;;;;;;;12.97;65.50;100483.68;2193658;80;20999;-73
2021/06/02 02:46:04;;;;;;;11.12;7.78;;;;;;;12.91;65.57;100485.71;2190453;80;21094;-72
2021/06/02 02:49:13;;;;;;;11.53;8.03;;;;;;;12.88;65.68;100490.56;2193586;80;21125;-72
2021/06/02 02:52:58;;;;;;;14.28;8.73;;;;;;;12.85;65.77;100486.41;2191206;80;21035;-72
2021/06/02 02:56:07;;;;;;;13.32;8.50;;;;;;;12.84;65.86;100493.22;2191641;80;21849;-72
2021/06/02 03:03:01;;;;;;;13.03;7.87;;;;;;;12.79;66.00;100497.25;2141813;82;21127;-73
2021/06/02 03:06:38;;;;;;;15.10;7.95;;;;;;;12.79;66.09;100501.23;2176823;80;21090;-73
2021/06/02 03:09:56;;;;;;;14.05;8.10;;;;;;;12.81;66.03;100505.08;2169858;80;21074;-72
2021/06/02 03:13:18;;;;;;;13.28;8.40;;;;;;;12.82;66.05;100506.72;2174514;80;21012;-74
2021/06/02 03:16:31;;;;;;;13.83;8.93;;;;;;;12.84;66.07;100508.72;2173486;80;21572;-71
2021/06/02 03:19:45;;;;;;;15.72;9.10;;;;;;;12.89;65.93;100509.02;2170930;80;21048;-77
2021/06/02 03:23:28;;;;;;;13.65;9.35;;;;;;;12.92;65.95;100511.36;2181819;80;21039;-74
2021/06/02 03:26:34;;;;;;;16.82;9.25;;;;;;;12.97;65.77;100514.31;2170958;80;21020;-72
2021/06/02 03:30:05;;;;;;;12.37;8.95;;;;;;;13.01;65.67;100515.64;2172240;80;21126;-73
2021/06/02 03:33:39;;;;;;;15.65;9.60;;;;;;;13.03;65.51;100517.30;2174785;80;21016;-73
2021/06/02 03:37:04;;;;;;;18.95;10.15;;;;;;;13.06;65.51;100511.61;2173105;80;21033;-72
2021/06/02 03:40:47;;;;;;;21.40;10.50;;;;;;;13.08;65.40;100515.77;2174504;80;21024;-71
2021/06/02 03:44:02;;;;;;;21.90;10.53;;;;;;;13.13;65.38;100520.08;2176785;80;21021;-72
2021/06/02 03:47:45;;;;;;;14.07;9.88;;;;;;;13.19;65.24;100511.89;2150753;80;21104;-72
2021/06/02 03:51:14;;;;;;;15.38;10.78;;;;;;;13.23;65.20;100516.72;2172328;80;21000;-70
2021/06/02 03:54:46;;;;;;;19.05;10.68;;;;;;;13.24;65.11;100511.70;2176530;80;21055;-72
2021/06/02 03:58:08;;;;;;;17.55;10.03;;;;;;;13.28;64.91;100522.87;2171525;80;21086;-74
2021/06/02 04:01:30;;;;;;;23.52;11.45;;;;;;;13.31;64.83;100527.84;2138589;79;21111;-72
2021/06/02 04:04:42;;;;;;;16.77;10.38;;;;;;;13.33;64.77;100529.02;2145572;81;21014;-72
2021/06/02 04:08:07;;;;;;;17.98;10.35;;;;;;;13.33;64.80;100529.84;2208643;79;21543;-72
2021/06/02 04:11:49;;;;;;;16.40;10.78;;;;;;;13.36;64.55;100530.82;2208967;79;21670;-70
2021/06/02 04:14:55;;;;;;;16.95;9.73;;;;;;;13.35;64.44;100533.17;2180643;79;21020;-70
2021/06/02 04:18:00;;;;;;;13.50;9.75;;;;;;;13.37;64.29;100541.80;2209057;79;21020;-69
2021/06/02 04:21:03;;;;;;;17.87;10.32;;;;;;;13.39;64.23;100545.13;2135971;81;21032;-76
2021/06/02 04:24:08;;;;;;;16.62;11.57;;;;;;;13.42;64.26;100555.44;2220482;78;21625;-70
2021/06/02 04:27:14;;;;;;;17.73;10.72;;;;;;;13.44;64.37;100557.44;2221144;78;21138;-71
2021/06/02 04:30:17;;;;;;;19.98;10.45;;;;;;;13.45;64.55;100555.59;2217567;78;21059;-76
2021/06/02 04:33:22;;;;;;;14.50;10.10;;;;;;;13.45;64.45;100560.42;2222088;78;21070;-70
2021/06/02 04:36:26;;;;;;;21.30;10.53;;;;;;;13.48;64.34;100569.08;2219046;78;21159;-73
2021/06/02 04:39:33;;;;;;;21.95;11.12;;;;;;;13.50;64.43;100567.91;2219050;78;21024;-73
2021/06/02 04:42:39;;;;;;;16.57;10.15;;;;;;;13.51;64.39;100572.72;2230029;78;20971;-72
2021/06/02 04:45:55;;;;;;;14.93;10.25;;;;;;;13.51;64.29;100576.22;2219025;78;21512;-70
2021/06/02 04:48:56;;;;;;;17.05;10.48;;;;;;;13.51;64.33;100583.39;2217209;78;21040;-70
2021/06/02 04:52:07;;;;;;;18.40;10.93;;;;;;;13.50;64.17;100585.73;2223865;78;21027;-70
2021/06/02 04:55:49;;;;;;;17.75;10.93;;;;;;;13.51;64.09;100583.39;2203906;78;21064;-70
2021/06/02 04:58:59;;;;;;;19.40;10.38;;;;;;;13.52;63.96;100578.41;2223509;78;21576;-71
2021/06/02 05:02:33;;;;;;;15.08;9.30;;;;;;;13.55;63.80;100591.38;2215162;78;21649;-71
2021/06/02 05:06:17;;;;;;;14.13;9.10;;;;;;;13.57;63.60;100597.34;2213292;78;21099;-69
2021/06/02 05:10:05;;;;;;;15.15;10.20;;;;;;;13.55;63.49;100596.72;2219863;78;21106;-71
2021/06/02 05:13:31;;;;;;;17.17;10.75;;;;;;;13.57;63.59;100604.02;2219361;78;21558;-69
2021/06/02 05:16:59;;;;;;;16.50;10.00;;;;;;;13.61;63.52;100607.50;2218073;78;21043;-70
2021/06/02 05:24:15;;;;;;;19.17;10.48;;;;;;;13.64;63.51;100608.48;2215957;78;21027;-70
2021/06/02 05:27:58;;;;;;;18.98;10.23;;;;;;;13.65;63.50;100610.64;2217257;78;21070;-71
2021/06/02 05:31:45;;;;;;;19.52;10.10;;;;;;;13.71;63.55;100619.27;2215132;78;21124;-70
2021/06/02 05:35:26;;;;;;;19.15;10.13;;;;;;;13.82;63.51;100621.55;2217524;78;21539;-71
2021/06/02 05:39:12;;;;;;;21.48;11.57;;;;;;;13.93;63.55;100623.49;2218376;78;21491;-71
2021/06/02 05:42:42;;;;;;;19.87;9.75;;;;;;;14.02;63.41;100628.62;2216560;78;21022;-71
2021/06/02 05:45:51;;;;;;;16.60;10.85;;;;;;;14.15;63.68;100625.34;2218415;78;21086;-70
2021/06/02 05:49:22;;;;;;;18.67;10.72;;;;;;;14.20;63.25;100630.98;2220232;78;21076;-70
2021/06/02 05:53:05;;;;;;;14.93;10.30;;;;;;;14.27;63.19;100630.58;2213943;78;21139;-75
2021/06/02 05:56:35;;;;;;;14.33;9.75;;;;;;;14.32;62.91;100626.87;2141619;79;21099;-72
2021/06/02 05:59:57;;;;;;;19.30;8.98;;;;;;;14.40;62.68;100631.33;2219877;78;21100;-71
2021/06/02 06:03:32;;;;;;;14.85;8.50;;;;;;;14.52;62.38;100633.09;2215656;78;21037;-71
2021/06/02 06:07:06;;;;;;;16.85;9.65;;;;;;;14.63;61.94;100632.66;2194311;78;21150;-72
2021/06/02 06:10:49;;;;;;;13.08;8.60;;;;;;;14.72;62.01;100642.26;2197232;78;21369;-71
2021/06/02 06:14:46;;;;;;;15.72;8.03;;;;;;;14.82;61.36;100640.68;2220900;78;20993;-71
2021/06/02 06:18:10;;;;;;;15.72;8.18;;;;;;;14.91;61.17;100641.43;2216179;78;21138;-72
2021/06/02 06:21:38;;;;;;;17.25;8.68;;;;;;;14.97;61.07;100646.04;2226801;78;21094;-71
2021/06/02 06:24:50;;;;;;;17.90;8.93;;;;;;;15.02;60.97;100641.80;2214891;78;21063;-74
2021/06/02 06:27:59;;;;;;;13.65;8.18;;;;;;;15.11;60.84;100643.06;2223651;78;21543;-71
2021/06/02 06:31:05;;;;;;;11.18;8.00;;;;;;;15.19;61.06;100650.48;2223307;78;21062;-70
2021/06/02 06:34:10;;;;;;;11.20;7.37;;;;;;;15.27;60.93;100647.41;2221021;78;21024;-74
2021/06/02 06:37:15;;;;;;;12.07;7.28;;;;;;;15.37;60.23;100646.60;2223164;78;21035;-72
2021/06/02 06:40:23;;;;;;;11.12;6.80;;;;;;;15.41;59.58;100654.59;2220124;78;21015;-71
2021/06/02 06:43:26;;;;;;;14.85;8.03;;;;;;;15.44;59.47;100646.20;2221014;78;21035;-76
2021/06/02 06:46:30;;;;;;;13.35;7.50;;;;;;;15.51;59.14;100651.11;2220984;78;21671;-76
2021/06/02 06:49:34;;;;;;;9.58;6.12;;;;;;;15.61;59.07;100650.33;2219031;78;21012;-72
2021/06/02 06:52:36;;;;;;;10.13;6.90;;;;;;;15.72;58.21;100640.20;2220762;78;21066;-72
2021/06/02 06:55:38;;;;;;;8.23;6.08;;;;;;;15.85;58.67;100636.31;2225313;78;20998;-71
2021/06/02 06:58:40;;;;;;;15.03;6.25;;;;;;;15.99;58.30;100639.45;2196671;78;21050;-72
2021/06/02 07:01:42;;;;;;;10.18;6.20;;;;;;;16.11;57.67;100638.48;2222652;78;21582;-71
2021/06/02 07:04:44;;;;;;;11.35;6.90;;;;;;;16.27;57.56;100646.75;2220163;78;21039;-75
2021/06/02 07:07:46;;;;;;;10.68;6.47;;;;;;;16.44;57.54;100649.48;2233705;78;21103;-77
2021/06/02 07:10:48;;;;;;;11.80;6.08;;;;;;;16.66;57.72;100651.64;2224130;78;21026;-71
2021/06/02 07:13:49;;;;;;;9.50;6.37;;;;;;;16.92;56.76;100651.55;2221925;78;21072;-71
2021/06/02 07:16:53;;;;;;;8.35;6.12;;;;;;;17.11;54.71;100652.20;2220027;78;21114;-76
2021/06/02 07:20:02;;;;;;;9.63;6.08;;;;;;;17.29;53.83;100648.17;2226943;78;21027;-71
2021/06/02 07:23:03;;;;;;;8.75;6.12;;;;;;;17.53;54.52;100657.60;2221396;78;21550;-71
2021/06/02 07:26:04;;;;;;;10.40;6.20;;;;;;;17.79;53.60;100653.70;2226730;78;21669;-72
2021/06/02 07:29:05;;;;;;;8.48;5.83;;;;;;;18.01;53.19;100653.05;2224387;78;21072;-72
2021/06/02 07:32:06;;;;;;;10.78;5.65;;;;;;;18.28;52.41;100660.67;2219716;78;21518;-71
2021/06/02 07:35:09;;;;;;;7.75;5.87;;;;;;;18.65;51.99;100654.39;2223045;78;21408;-72
2021/06/02 07:38:10;;;;;;;7.67;5.70;;;;;;;19.05;51.17;100649.02;2224508;78;21068;-73
2021/06/02 07:41:12;;;;;;;9.88;5.47;;;;;;;19.65;49.37;100647.48;2219861;78;21093;-71
2021/06/02 07:44:13;;;;;;;8.13;5.42;;;;;;;20.22;49.06;100646.31;2221137;78;21697;-72
2021/06/02 07:47:14;;;;;;;6.72;5.05;;;;;;;20.92;50.18;100644.32;2220934;78;21530;-71
2021/06/02 07:50:15;;;;;;;6.60;4.72;;;;;;;21.77;48.07;100643.59;2216192;78;21063;-75
2021/06/02 07:53:17;;;;;;;6.37;4.42;;;;;;;22.40;47.71;100650.41;2218773;78;21056;-71
2021/06/02 07:56:18;;;;;;;11.43;4.58;;;;;;;23.07;47.27;100646.09;2224226;78;21082;-72
2021/06/02 07:59:19;;;;;;;8.28;4.20;;;;;;;23.76;45.45;100646.72;2220313;78;21455;-72
2021/06/02 08:02:20;;;;;;;5.15;3.90;;;;;;;24.15;43.55;100646.38;2220807;78;21032;-73
2021/06/02 08:05:22;;;;;;;8.63;3.70;;;;;;;24.37;42.48;100646.49;2217714;78;21102;-74
2021/06/02 08:08:23;;;;;;;8.30;2.98;;;;;;;24.59;40.17;100655.58;2221350;78;21533;-71
2021/06/02 08:11:24;;;;;;;3.17;2.87;;;;;;;24.34;35.69;100646.98;2225417;78;21581;-71
2021/06/02 08:14:25;;;;;;;2.95;2.65;;;;;;;24.04;36.46;100658.91;2226477;78;20989;-72
2021/06/02 08:17:27;;;;;;;4.95;2.98;;;;;;;23.80;35.83;100660.09;2222589;78;21074;-71
2021/06/02 08:20:28;;;;;;;4.67;2.98;;;;;;;23.67;36.00;100653.02;2223842;78;21071;-75
2021/06/02 08:23:29;;;;;;;5.15;3.20;;;;;;;23.70;35.40;100658.81;2223142;78;21040;-72
2021/06/02 08:26:37;;;;;;;3.95;3.00;;;;;;;23.56;32.82;100663.36;2219055;78;21534;-73
2021/06/02 08:29:40;;;;;;;3.55;2.80;;;;;;;23.32;31.73;100662.60;2225140;78;21104;-73
2021/06/02 08:32:42;;;;;;;4.28;2.95;;;;;;;23.23;33.53;100660.79;2223869;78;21469;-73
2021/06/02 08:35:44;;;;;;;3.98;2.60;;;;;;;23.36;33.42;100668.64;2227405;78;21039;-72
2021/06/02 08:38:45;;;;;;;4.17;3.33;;;;;;;23.63;29.01;100663.53;2226471;78;21022;-73
2021/06/02 08:41:49;;;;;;;4.08;2.98;;;;;;;23.58;32.08;100664.77;2224720;78;20997;-72
2021/06/02 08:44:52;;;;;;;3.85;2.67;;;;;;;23.85;31.47;100670.50;2225824;78;21928;-72
2021/06/02 08:47:54;;;;;;;7.10;2.47;;;;;;;23.71;30.76;100659.66;2228655;78;21019;-72
2021/06/02 08:50:55;;;;;;;3.15;2.85;;;;;;;23.76;31.03;100671.92;2223862;78;21044;-71
2021/06/02 08:53:57;;;;;;;4.03;2.08;;;;;;;23.68;30.90;100677.69;2220410;78;21812;-76
2021/06/02 08:57:04;;;;;;;6.00;2.37;;;;;;;23.44;29.35;100666.10;2221483;78;21595;-73
2021/06/02 09:00:12;;;;;;;3.42;2.05;;;;;;;23.09;29.60;100681.02;2221138;78;21503;-72
2021/06/02 09:03:14;;;;;;;2.90;2.35;;;;;;;23.12;30.91;100671.92;2219871;78;21063;-73
2021/06/02 09:06:16;;;;;;;3.08;2.00;;;;;;;23.41;30.69;100682.83;2224447;78;21885;-78
2021/06/02 09:09:19;;;;;;;2.75;2.35;;;;;;;23.53;30.62;100687.68;2223515;78;21031;-75
2021/06/02 09:12:37;;;;;;;2.67;2.00;;;;;;;23.44;29.06;100685.88;2225206;78;21152;-72
2021/06/02 09:15:46;;;;;;;3.45;2.50;;;;;;;23.22;29.41;100683.48;2220056;78;21079;-74
2021/06/02 09:19:02;;;;;;;3.80;2.50;;;;;;;23.41;28.13;100674.16;2230431;78;21073;-71
2021/06/02 09:22:08;;;;;;;4.85;2.85;;;;;;;23.51;28.35;100684.41;2223850;78;21090;-72
2021/06/02 09:25:11;;;;;;;3.83;2.40;;;;;;;23.44;28.43;100679.64;2225807;78;21109;-72
2021/06/02 09:28:13;;;;;;;3.12;2.72;;;;;;;23.42;29.05;100687.98;2221295;78;21109;-72
2021/06/02 09:31:41;;;;;;;2.83;2.58;;;;;;;23.61;28.73;100681.08;2224133;78;22021;-73
2021/06/02 09:34:42;;;;;;;4.08;2.50;;;;;;;23.70;28.90;100687.25;2226893;78;21118;-71
2021/06/02 09:37:55;;;;;;;3.90;2.70;;;;;;;23.54;29.02;100688.50;2226623;78;21044;-71
2021/06/02 09:40:58;;;;;;;6.30;2.67;;;;;;;23.40;29.32;100682.55;2221053;78;21187;-71
2021/06/02 09:44:12;;;;;;;3.27;2.33;;;;;;;23.29;29.65;100684.20;2226671;78;21130;-72
2021/06/02 09:47:13;;;;;;;3.55;2.67;;;;;;;23.48;29.70;100688.41;2225732;78;21318;-72
2021/06/02 09:50:23;;;;;;;2.50;2.30;;;;;;;23.56;29.46;100683.67;2226889;78;21016;-71
2021/06/02 09:53:24;;;;;;;3.80;2.20;;;;;;;23.78;29.97;100684.70;2219705;78;21510;-71
2021/06/02 09:56:40;;;;;;;2.95;2.67;;;;;;;23.68;28.10;100687.17;2224468;78;21092;-71
2021/06/02 09:59:59;;;;;;;3.55;2.15;;;;;;;23.53;29.57;100695.80;2218596;78;21059;-87
2021/06/02 10:03:04;;;;;;;5.15;2.35;;;;;;;23.38;29.85;100690.89;2220780;78;21102;-71
2021/06/02 10:06:10;;;;;;;3.05;1.92;;;;;;;23.55;28.98;100688.27;2217964;78;21606;-71
2021/06/02 10:09:12;;;;;;;2.25;1.92;;;;;;;23.62;28.73;100696.25;2215937;78;21016;-70
2021/06/02 10:12:15;;;;;;;2.30;2.10;;;;;;;23.33;28.02;100699.43;2220134;78;20996;-71
2021/06/02 10:15:22;;;;;;;3.35;2.45;;;;;;;23.18;29.50;100688.56;2218358;78;22320;-70
2021/06/02 10:18:33;;;;;;;5.25;2.75;;;;;;;23.27;29.20;100691.19;2219695;78;21138;-70
2021/06/02 10:21:55;;;;;;;5.45;2.40;;;;;;;23.12;29.60;100681.92;2219259;78;21514;-73
2021/06/02 10:24:56;;;;;;;4.12;2.52;;;;;;;23.32;30.69;100684.27;2221355;78;21642;-70
2021/06/02 10:27:58;;;;;;;6.17;2.55;;;;;;;23.34;29.90;100690.23;2221209;78;21050;-74
2021/06/02 10:31:09;;;;;;;2.50;2.30;;;;;;;23.36;29.46;100681.36;2219697;78;21141;-70
2021/06/02 10:34:11;;;;;;;3.60;2.50;;;;;;;23.44;29.66;100679.11;2227833;78;21102;-72
2021/06/02 10:37:16;;;;;;;4.37;2.45;;;;;;;23.49;29.92;100676.51;2218013;78;21015;-71
2021/06/02 10:40:23;;;;;;;3.85;2.30;;;;;;;23.48;29.79;100679.44;2219063;78;21072;-73
2021/06/02 10:43:35;;;;;;;8.73;2.98;;;;;;;23.44;28.87;100710.78;2225481;78;21062;-71
2021/06/02 10:46:43;;;;;;;4.00;2.30;;;;;;;23.23;28.83;100696.80;2222442;78;21435;-70
2021/06/02 10:49:44;;;;;;;8.05;3.10;;;;;;;23.10;29.76;100692.16;2221937;78;21031;-70
2021/06/02 10:52:45;;;;;;;2.87;2.40;;;;;;;23.13;31.08;100701.97;2217969;78;21055;-71
2021/06/02 10:55:57;;;;;;;8.68;2.45;;;;;;;23.17;29.71;100689.62;2220920;78;21000;-70
2021/06/02 10:59:00;;;;;;;6.25;2.70;;;;;;;23.00;29.98;100690.02;2219565;78;21975;-71
2021/06/02 11:02:11;;;;;;;5.28;2.37;;;;;;;22.92;30.88;100702.00;2219716;78;21598;-71
2021/06/02 11:05:15;;;;;;;5.25;2.40;;;;;;;22.75;30.06;100703.22;2225073;78;21047;-71
2021/06/02 11:08:17;;;;;;;4.00;2.50;;;;;;;22.76;30.74;100704.04;2219899;78;21045;-72
2021/06/02 11:11:38;;;;;;;8.63;2.42;;;;;;;22.77;31.05;100705.67;2197789;78;21018;-72
2021/06/02 11:14:39;;;;;;;6.05;2.92;;;;;;;22.79;30.69;100701.69;2219624;78;21068;-75
2021/06/02 11:17:40;;;;;;;5.78;2.35;;;;;;;22.75;31.00;100695.61;2219083;78;21633;-76
2021/06/02 11:20:59;;;;;;;5.60;2.90;;;;;;;22.72;30.16;100688.81;2216118;78;21104;-71
2021/06/02 11:24:01;;;;;;;4.20;2.72;;;;;;;22.71;30.88;100699.85;2221197;78;21051;-74
2021/06/02 11:27:17;;;;;;;6.75;3.12;;;;;;;22.62;29.62;100698.02;2193844;78;21063;-71
2021/06/02 11:30:19;;;;;;;3.25;2.50;;;;;;;22.47;30.77;100692.20;2225140;78;21551;-75
2021/06/02 11:33:24;;;;;;;5.28;2.80;;;;;;;22.48;31.14;100699.28;2215085;78;22433;-71
2021/06/02 11:36:27;;;;;;;5.55;2.72;;;;;;;22.57;30.65;100696.00;2192697;78;21058;-72
2021/06/02 11:39:28;;;;;;;5.47;2.55;;;;;;;22.56;30.32;100707.06;2227572;78;22241;-72
2021/06/02 11:42:46;;;;;;;4.60;2.87;;;;;;;22.43;30.61;100694.55;2223866;78;20991;-72
2021/06/02 11:45:49;;;;;;;2.70;2.47;;;;;;;22.33;31.06;100699.18;2220123;78;21118;-72
2021/06/02 11:48:51;;;;;;;4.45;2.95;;;;;;;22.36;31.54;100691.96;2216760;78;21009;-73
2021/06/02 11:51:55;;;;;;;4.35;2.77;;;;;;;22.43;31.39;100714.02;2231874;78;21201;-72
2021/06/02 11:55:40;;;;;;;8.88;2.90;;;;;;;22.42;30.97;100703.73;2186785;79;24596;-70
2021/06/02 11:58:47;;;;;;;3.87;2.87;;;;;;;22.39;30.62;100693.38;2163322;80;21312;-71
2021/06/02 12:01:48;;;;;;;4.95;2.80;;;;;;;22.55;32.43;100703.54;2158429;80;21506;-71
2021/06/02 12:04:50;;;;;;;5.90;3.05;;;;;;;22.45;30.48;100705.97;2155192;80;21716;-72
2021/06/02 12:08:11;;;;;;;5.85;2.90;;;;;;;22.31;30.76;100706.69;2155831;80;20978;-72
2021/06/02 12:11:12;;;;;;;4.10;2.90;;;;;;;22.27;30.81;100698.75;2158464;80;21002;-70
2021/06/02 12:14:21;;;;;;;8.08;3.25;;;;;;;22.30;31.23;100710.45;2155319;80;21011;-72
2021/06/02 12:17:31;;;;;;;4.33;2.87;;;;;;;22.30;31.95;100702.34;2157006;80;21079;-72
2021/06/02 12:20:35;;;;;;;4.60;2.90;;;;;;;22.29;31.66;100702.03;2156564;80;21523;-72
2021/06/02 12:23:54;;;;;;;4.87;3.00;;;;;;;22.32;32.22;100711.03;2163331;80;21052;-72
2021/06/02 12:26:56;;;;;;;4.95;2.80;;;;;;;22.19;31.90;100707.19;2152813;80;21026;-71
2021/06/02 12:30:12;;;;;;;6.22;3.00;;;;;;;22.17;31.65;100714.66;2155284;80;21053;-70
2021/06/02 12:33:13;;;;;;;4.92;3.05;;;;;;;22.28;32.21;100711.20;2159134;80;21041;-70
2021/06/02 12:36:14;;;;;;;5.78;2.92;;;;;;;22.51;31.92;100706.92;2160974;80;21070;-71
2021/06/02 12:39:18;;;;;;;5.37;2.52;;;;;;;22.35;31.47;100705.16;2159315;80;20967;-72
2021/06/02 12:42:19;;;;;;;3.85;3.10;;;;;;;22.30;32.67;100702.85;2155186;80;21104;-72
2021/06/02 12:45:24;;;;;;;4.45;2.65;;;;;;;22.34;31.94;100717.03;2158979;81;20979;-71
2021/06/02 12:48:33;;;;;;;4.55;2.30;;;;;;;22.29;31.89;100709.32;2155044;80;20987;-74
2021/06/02 12:51:38;;;;;;;6.55;2.87;;;;;;;22.28;31.22;100709.85;2153726;80;21028;-74
2021/06/02 12:54:40;;;;;;;5.50;3.10;;;;;;;22.26;31.33;100711.95;2155465;80;21117;-71
2021/06/02 12:57:42;;;;;;;4.65;2.58;;;;;;;22.16;31.73;100710.31;2146238;80;21030;-71
2021/06/02 13:00:49;;;;;;;2.55;2.35;;;;;;;22.08;31.08;100713.33;2148122;80;21109;-71
2021/06/02 13:03:54;;;;;;;5.55;2.37;;;;;;;22.08;31.47;100708.75;2151557;80;20960;-72
2021/06/02 13:06:56;;;;;;;3.20;2.55;;;;;;;22.12;31.51;100717.22;2143673;80;21544;-72
2021/06/02 13:09:59;;;;;;;4.78;2.27;;;;;;;22.11;31.62;100712.34;2146772;80;21078;-72
2021/06/02 13:13:03;;;;;;;3.12;2.35;;;;;;;22.08;31.42;100703.88;2149260;80;21069;-71
2021/06/02 13:16:06;;;;;;;3.83;2.70;;;;;;;21.98;30.88;100711.69;2151430;80;21876;-72
2021/06/02 13:19:08;;;;;;;6.67;2.90;;;;;;;21.92;31.73;100712.89;2145953;80;21062;-72
2021/06/02 13:22:21;;;;;;;5.20;2.42;;;;;;;22.00;31.95;100713.64;2148417;80;21058;-72
2021/06/02 13:25:29;;;;;;;2.50;2.30;;;;;;;21.98;31.46;100717.09;2151916;80;20993;-75
2021/06/02 13:28:33;;;;;;;2.67;2.45;;;;;;;21.93;31.15;100721.81;2145613;80;21049;-72
2021/06/02 13:31:47;;;;;;;2.70;2.42;;;;;;;21.99;31.13;100712.83;2154030;80;21095;-72
2021/06/02 13:34:49;;;;;;;4.65;2.52;;;;;;;21.93;31.95;100716.41;2150233;80;20988;-71
2021/06/02 13:37:50;;;;;;;5.95;2.40;;;;;;;21.90;31.40;100720.39;2151830;80;21022;-75
2021/06/02 13:40:51;;;;;;;5.22;2.60;;;;;;;21.84;31.37;100726.70;2149352;80;21493;-72
2021/06/02 13:43:53;;;;;;;4.97;2.70;;;;;;;21.75;30.27;100725.89;2140711;80;21003;-72
2021/06/02 13:46:55;;;;;;;4.30;2.50;;;;;;;21.60;31.26;100718.18;2150015;80;21316;-72
2021/06/02 13:50:13;;;;;;;2.65;2.45;;;;;;;21.64;30.61;100723.41;2146080;80;21097;-76
2021/06/02 13:53:15;;;;;;;3.58;2.60;;;;;;;21.70;31.49;100730.61;2150061;80;21056;-71
2021/06/02 13:56:16;;;;;;;4.28;2.27;;;;;;;21.78;32.06;100727.61;2135675;81;21050;-72
2021/06/02 13:59:21;;;;;;;4.33;2.42;;;;;;;21.84;31.91;100732.10;2134923;81;20964;-74
2021/06/02 14:02:27;;;;;;;3.98;2.60;;;;;;;21.81;31.61;100729.86;2140178;81;20960;-70
2021/06/02 14:05:30;;;;;;;3.27;1.87;;;;;;;21.80;32.63;100728.75;2132349;81;20984;-73
2021/06/02 14:08:31;;;;;;;4.08;2.83;;;;;;;21.82;31.61;100730.17;2141426;81;21070;-70
2021/06/02 14:11:32;;;;;;;6.05;2.85;;;;;;;21.79;31.32;100726.55;2137297;81;21004;-70
2021/06/02 14:14:34;;;;;;;8.75;2.60;;;;;;;21.66;31.13;100728.08;2138168;81;20988;-71
2021/06/02 14:17:36;;;;;;;3.02;2.20;;;;;;;21.60;31.70;100719.53;2140125;81;21495;-72
2021/06/02 14:20:37;;;;;;;2.37;2.17;;;;;;;21.57;31.26;100724.85;2133087;81;21072;-71
2021/06/02 14:23:38;;;;;;;2.87;2.40;;;;;;;21.55;31.59;100718.02;2137914;81;21050;-71
2021/06/02 14:26:41;;;;;;;2.95;2.52;;;;;;;21.52;31.18;100713.89;2138239;81;21111;-72
2021/06/02 14:29:46;;;;;;;3.00;2.30;;;;;;;21.58;32.34;100713.52;2140476;81;21087;-69
2021/06/02 14:32:47;;;;;;;4.17;2.20;;;;;;;21.64;31.72;100717.48;2139592;81;21048;-69
2021/06/02 14:35:49;;;;;;;5.37;2.60;;;;;;;21.66;31.57;100715.92;2138321;81;20992;-72
2021/06/02 14:38:51;;;;;;;4.47;2.15;;;;;;;21.65;31.44;100716.45;2136306;81;21043;-70
2021/06/02 14:41:53;;;;;;;3.25;2.10;;;;;;;21.60;31.99;100714.95;2133384;81;21051;-69
2021/06/02 14:44:55;;;;;;;6.92;2.35;;;;;;;21.51;31.24;100727.61;2142034;81;21059;-70
2021/06/02 14:47:56;;;;;;;3.80;2.40;;;;;;;21.40;31.39;100728.66;2138343;81;20989;-67
2021/06/02 14:50:58;;;;;;;8.03;2.83;;;;;;;21.35;31.99;100719.02;2137479;81;21330;-72